Time;durP1;ratioP1;P1;durP2;ratioP2;P2;SDS_P1;SDS_P2;PMS_P1;PMS_P2;Temp;Humidity;BMP_temperature;BMP_pressure;BME280_temperature;BME280_humidity;BME280_pressure;Samples;Min_cycle;Max_cycle;Signal;HPM_P1;HPM_P2
2023/01/09 00:00:14;;;;;;;0.85;0.43;;;;;;;6.34;100.00;99395.66;5114662;28;20055;-37
2023/01/09 00:02:40;;;;;;;1.10;0.40;;;;;;;6.23;100.00;99399.19;5114718;28;20026;-38
2023/01/09 00:05:07;;;;;;;1.00;0.40;;;;;;;6.26;100.00;99401.41;5115413;28;20023;-38
2023/01/09 00:07:33;;;;;;;1.85;0.52;;;;;;;6.06;100.00;99380.34;5114753;28;20160;-38
2023/01/09 00:09:58;;;;;;;0.40;0.40;;;;;;;6.17;100.00;99408.19;5114990;28;20088;-38
2023/01/09 00:12:23;;;;;;;2.10;0.57;;;;;;;6.13;100.00;99399.78;5114989;28;20052;-39
2023/01/09 00:14:49;;;;;;;2.67;0.50;;;;;;;6.09;100.00;99395.94;5114625;28;20459;-37
2023/01/09 00:17:14;;;;;;;0.93;0.30;;;;;;;6.09;100.00;99400.50;5114552;28;20032;-36
2023/01/09 00:19:39;;;;;;;1.07;0.40;;;;;;;5.99;100.00;99394.94;5096017;28;20043;-36
2023/01/09 00:22:05;;;;;;;0.70;0.40;;;;;;;6.00;100.00;99409.97;5114529;28;20081;-36
2023/01/09 00:24:31;;;;;;;0.75;0.50;;;;;;;5.99;100.00;99417.19;5114794;28;20428;-36
2023/01/09 00:26:56;;;;;;;1.23;0.50;;;;;;;5.92;100.00;99408.47;5114126;28;20426;-38
2023/01/09 00:29:21;;;;;;;0.90;0.50;;;;;;;5.87;100.00;99411.84;5114442;28;20034;-36
2023/01/09 00:31:47;;;;;;;2.03;0.60;;;;;;;5.87;100.00;99413.72;5114104;28;20365;-36
2023/01/09 00:34:12;;;;;;;1.90;0.50;;;;;;;5.82;100.00;99417.09;5114504;28;20106;-36
2023/01/09 00:36:37;;;;;;;1.93;0.60;;;;;;;5.82;100.00;99417.09;5114608;28;20034;-36
2023/01/09 00:39:04;;;;;;;1.23;0.40;;;;;;;5.79;100.00;99412.19;5114546;28;20050;-37
2023/01/09 00:41:38;;;;;;;1.38;0.50;;;;;;;5.77;100.00;99410.81;5113920;28;20036;-37
2023/01/09 00:44:28;;;;;;;2.17;0.70;;;;;;;5.76;100.00;99411.81;5114169;28;20027;-37
2023/01/09 00:47:03;;;;;;;1.85;0.68;;;;;;;5.69;100.00;99412.78;5114201;28;20074;-37
2023/01/09 00:49:31;;;;;;;1.20;0.50;;;;;;;5.59;100.00;99392.97;5114136;28;20027;-38
2023/01/09 00:51:57;;;;;;;2.20;1.00;;;;;;;5.64;100.00;99406.47;5113716;28;20027;-37
2023/01/09 00:54:22;;;;;;;;;;;;;;;5.69;100.00;99411.97;5114070;28;20027;-37
2023/01/09 00:56:48;;;;;;;0.98;0.60;;;;;;;5.58;100.00;99415.47;5114054;28;20291;-37
2023/01/09 00:59:14;;;;;;;2.90;0.80;;;;;;;5.53;100.00;99416.16;5114328;28;20023;-37
2023/01/09 01:01:39;;;;;;;2.90;0.80;;;;;;;5.48;100.00;99401.81;5114017;28;20031;-37
2023/01/09 01:07:37;;;;;;;2.50;0.83;;;;;;;5.50;100.00;99413.94;5114826;28;20034;-38
2023/01/09 01:09:34;;;;;;;1.83;0.85;;;;;;;5.40;100.00;99413.69;5113719;28;20062;-37
2023/01/09 01:12:00;;;;;;;1.52;0.70;;;;;;;5.43;100.00;99429.34;5113892;28;20452;-37
2023/01/09 01:14:26;;;;;;;2.67;0.73;;;;;;;5.36;100.00;99421.38;5113898;28;20032;-37
2023/01/09 01:16:51;;;;;;;2.00;0.80;;;;;;;5.38;100.00;99424.66;5113889;28;20027;-37
2023/01/09 01:19:17;;;;;;;2.10;0.83;;;;;;;5.37;100.00;99430.25;5113911;28;20383;-37
2023/01/09 01:21:42;;;;;;;1.63;0.80;;;;;;;5.35;100.00;99438.50;5113545;28;20028;-37
2023/01/09 01:24:07;;;;;;;2.40;0.83;;;;;;;5.39;100.00;99434.34;5114444;28;20079;-37
2023/01/09 01:26:33;;;;;;;2.93;0.80;;;;;;;5.36;100.00;99447.38;5113478;28;20034;-37
2023/01/09 01:28:58;;;;;;;1.63;0.80;;;;;;;5.34;100.00;99450.28;5113757;28;20039;-37
2023/01/09 01:31:24;;;;;;;1.00;0.60;;;;;;;5.27;100.00;99440.72;5113948;28;20051;-37
2023/01/09 01:33:49;;;;;;;1.77;0.90;;;;;;;5.25;100.00;99440.13;5113381;28;20027;-37
2023/01/09 01:36:16;;;;;;;2.07;0.80;;;;;;;5.24;100.00;99447.34;5113412;28;20031;-37
2023/01/09 01:38:42;;;;;;;3.63;1.08;;;;;;;5.19;100.00;99441.88;5113733;28;20127;-37
2023/01/09 01:41:07;;;;;;;1.85;0.88;;;;;;;5.16;100.00;99439.66;5113643;28;20114;-37
2023/01/09 01:43:53;;;;;;;1.27;0.60;;;;;;;5.18;100.00;99442.94;5113692;28;20032;-37
2023/01/09 01:46:19;;;;;;;3.08;0.80;;;;;;;5.09;100.00;99438.94;5113301;28;20059;-37
2023/01/09 01:48:46;;;;;;;2.88;1.05;;;;;;;5.10;100.00;99433.34;5114206;28;20059;-37
2023/01/09 01:51:14;;;;;;;7.13;1.13;;;;;;;5.03;100.00;99435.31;5113274;28;20530;-37
2023/01/09 01:53:43;;;;;;;2.17;0.70;;;;;;;5.12;100.00;99452.72;5114005;28;20055;-37
2023/01/09 01:56:23;;;;;;;2.55;0.85;;;;;;;5.08;100.00;99454.22;5113384;28;20084;-38
2023/01/09 01:59:06;;;;;;;2.28;0.90;;;;;;;5.00;100.00;99451.03;5113739;28;20032;-37
2023/01/09 02:01:33;;;;;;;4.13;0.98;;;;;;;5.02;100.00;99459.63;5113737;28;20027;-37
2023/01/09 02:04:00;;;;;;;2.38;0.73;;;;;;;5.04;100.00;99453.03;5113448;28;20031;-37
2023/01/09 02:06:27;;;;;;;3.47;1.40;;;;;;;5.00;100.00;99457.19;5115555;28;20032;-37
2023/01/09 02:08:52;;;;;;;;;;;;;;;5.05;100.00;99449.28;5117615;28;20467;-37
2023/01/09 02:11:18;;;;;;;;;;;;;;;5.04;100.00;99457.56;5117226;28;19912;-37
2023/01/09 02:13:43;;;;;;;;;;;;;;;5.03;100.00;99462.13;5117704;28;20003;-37
2023/01/09 02:16:18;;;;;;;;;;;;;;;5.03;100.00;99466.66;5117704;28;20425;-37
2023/01/09 02:18:53;;;;;;;;;;;;;;;5.02;100.00;99460.47;5118218;28;20263;-36
2023/01/09 02:21:18;;;;;;;;;;;;;;;5.01;100.00;99458.00;5117279;28;20283;-37
2023/01/09 02:24:04;;;;;;;;;;;;;;;4.99;100.00;99455.56;5117784;28;19911;-37
2023/01/09 02:26:35;;;;;;;;;;;;;;;5.00;100.00;99459.06;5116949;28;20302;-37
2023/01/09 02:29:09;;;;;;;;;;;;;;;5.00;100.00;99457.19;5117362;28;19919;-37
2023/01/09 02:31:34;;;;;;;;;;;;;;;5.01;100.00;99464.19;5117132;28;19911;-38
2023/01/09 02:34:02;;;;;;;;;;;;;;;5.02;100.00;99470.34;5116745;28;19919;-37
2023/01/09 02:36:34;;;;;;;;;;;;;;;4.99;100.00;99465.47;5116699;28;19939;-37
2023/01/09 02:39:12;;;;;;;;;;;;;;;4.99;100.00;99460.13;5117185;28;19916;-37
2023/01/09 02:41:41;;;;;;;;;;;;;;;4.96;100.00;99461.38;5116935;28;20378;-37
2023/01/09 02:44:25;;;;;;;;;;;;;;;4.94;100.00;99457.31;5116934;28;19916;-36
2023/01/09 02:47:25;;;;;;;;;;;;;;;4.90;100.00;99454.25;5117055;28;20283;-37
2023/01/09 02:49:52;;;;;;;;;;;;;;;4.91;100.00;99461.25;5116278;28;20279;-37
2023/01/09 02:52:20;;;;;;;;;;;;;;;4.88;100.00;99456.31;5116647;28;20344;-37
2023/01/09 02:54:48;;;;;;;;;;;;;;;4.90;100.00;99451.56;5117222;28;20063;-37
2023/01/09 02:57:17;;;;;;;;;;;;;;;4.86;100.00;99448.53;5116236;28;19941;-37
2023/01/09 02:59:51;;;;;;;;;;;;;;;4.83;100.00;99446.31;5117203;28;20317;-36
2023/01/09 03:02:34;;;;;;;;;;;;;;;4.78;100.00;99446.19;5116503;28;19998;-37
2023/01/09 03:05:18;;;;;;;;;;;;;;;4.77;100.00;99444.53;5117072;28;19911;-36
2023/01/09 03:07:43;;;;;;;;;;;;;;;4.77;100.00;99436.50;5116261;28;19919;-45
2023/01/09 03:10:14;;;;;;;;;;;;;;;4.74;100.00;99436.97;5116986;28;19915;-36
2023/01/09 03:12:41;;;;;;;;;;;;;;;4.75;100.00;99437.78;5115993;28;19966;-36
2023/01/09 03:15:10;;;;;;;;;;;;;;;4.72;100.00;99441.72;5115957;28;19911;-37
2023/01/09 03:17:45;;;;;;;;;;;;;;;4.71;100.00;99437.41;5116202;28;19936;-37
2023/01/09 03:20:12;;;;;;;;;;;;;;;4.72;100.00;99441.72;5116784;28;19957;-37
2023/01/09 03:22:38;;;;;;;;;;;;;;;4.71;100.00;99453.47;5116067;28;19925;-37
2023/01/09 03:25:03;;;;;;;;;;;;;;;4.69;100.00;99450.22;5116706;28;20006;-37
2023/01/09 03:27:29;;;;;;;;;;;;;;;4.67;100.00;99452.28;5115632;28;19958;-37
2023/01/09 03:29:55;;;;;;;;;;;;;;;4.63;100.00;99459.97;5116569;28;19912;-37
2023/01/09 03:32:20;;;;;;;;;;;;;;;4.61;100.00;99447.84;5115789;28;19995;-37
2023/01/09 03:34:46;;;;;;;;;;;;;;;4.59;100.00;99457.97;5115863;28;19958;-36
2023/01/09 03:37:11;;;;;;;;;;;;;;;4.60;100.00;99456.94;5115445;28;19912;-37
2023/01/09 03:39:36;;;;;;;;;;;;;;;4.59;100.00;99452.63;5115879;28;19915;-37
2023/01/09 03:42:01;;;;;;;;;;;;;;;4.57;100.00;99446.66;5115621;28;20355;-37
2023/01/09 03:44:27;;;;;;;;;;;;;;;4.56;100.00;99443.16;5115596;28;19916;-36
2023/01/09 03:46:52;;;;;;;;;;;;;;;4.58;100.00;99450.97;5115215;28;19919;-37
2023/01/09 03:49:17;;;;;;;;;;;;;;;4.56;100.00;99451.19;5116242;28;19916;-37
2023/01/09 03:51:43;;;;;;;;;;;;;;;4.55;100.00;99454.13;5115479;28;20348;-37
2023/01/09 03:54:08;;;;;;;;;;;;;;;4.56;100.00;99455.75;5115905;28;19966;-36
2023/01/09 03:56:33;;;;;;;;;;;;;;;4.55;100.00;99444.22;5115459;28;19951;-37
2023/01/09 03:58:59;;;;;;;;;;;;;;;4.58;100.00;99442.94;5115426;28;19911;-37
2023/01/09 04:01:24;;;;;;;;;;;;;;;4.59;100.00;99450.75;5115101;28;19912;-37
2023/01/09 04:03:49;;;;;;;;;;;;;;;4.65;100.00;99443.69;5115739;28;20010;-37
2023/01/09 04:06:14;;;;;;;;;;;;;;;4.68;100.00;99447.75;5097408;28;19918;-37
2023/01/09 04:08:39;;;;;;;;;;;;;;;4.68;100.00;99440.53;5115558;28;20002;-37
2023/01/09 04:11:05;;;;;;;;;;;;;;;4.71;100.00;99442.78;5115140;28;19994;-37
2023/01/09 04:13:30;;;;;;;;;;;;;;;4.70;100.00;99434.97;5115036;28;20348;-36
2023/01/09 04:15:55;;;;;;;;;;;;;;;4.66;100.00;99442.63;5097009;28;19919;-37
2023/01/09 04:18:20;;;;;;;;;;;;;;;4.67;100.00;99441.59;5115368;28;19912;-36
2023/01/09 04:20:46;;;;;;;;;;;;;;;4.67;100.00;99448.81;5114673;28;19911;-36
2023/01/09 04:23:11;;;;;;;;;;;;;;;4.71;100.00;99448.13;5114715;28;20018;-36
2023/01/09 04:25:36;;;;;;;;;;;;;;;4.71;100.00;99450.81;5114919;28;19912;-37
2023/01/09 04:28:02;;;;;;;;;;;;;;;4.73;100.00;99443.34;5115230;28;19912;-37
2023/01/09 04:30:27;;;;;;;;;;;;;;;4.77;100.00;99447.22;5114006;28;19916;-37
2023/01/09 04:32:52;;;;;;;;;;;;;;;4.79;100.00;99447.00;5114812;28;19915;-37
2023/01/09 04:35:18;;;;;;;;;;;;;;;4.85;100.00;99454.94;5114444;28;19911;-36
2023/01/09 04:37:43;;;;;;;;;;;;;;;4.89;100.00;99449.94;5115093;28;19918;-37
2023/01/09 04:40:09;;;;;;;;;;;;;;;4.94;100.00;99449.28;5115576;28;19916;-37
2023/01/09 04:42:35;;;;;;;;;;;;;;;4.98;100.00;99445.91;5114579;28;19991;-37
2023/01/09 04:45:00;;;;;;;;;;;;;;;5.01;100.00;99450.78;5115032;28;20002;-36
2023/01/09 04:47:25;;;;;;;;;;;;;;;5.04;100.00;99449.53;5114512;28;20317;-37
2023/01/09 04:49:51;;;;;;;;;;;;;;;5.07;100.00;99446.38;5114317;28;19912;-37
2023/01/09 04:52:16;;;;;;;;;;;;;;;5.10;100.00;99436.03;5114496;28;20026;-37
2023/01/09 04:54:41;;;;;;;;;;;;;;;5.11;100.00;99442.19;5115069;28;19912;-37
2023/01/09 04:57:06;;;;;;;;;;;;;;;5.14;100.00;99439.06;5114795;28;19961;-37
2023/01/09 04:59:31;;;;;;;;;;;;;;;5.15;100.00;99438.84;5114531;28;19957;-37
2023/01/09 05:01:58;;;;;;;;;;;;;;;5.18;100.00;99450.97;5114049;28;19923;-37
2023/01/09 05:04:23;;;;;;;;;;;;;;;5.20;100.00;99435.47;5114678;28;20261;-37
2023/01/09 05:06:49;;;;;;;;;;;;;;;5.23;100.00;99428.84;5114079;28;19964;-37
2023/01/09 05:09:14;;;;;;;;;;;;;;;5.25;100.00;99432.09;5114415;28;19950;-37
2023/01/09 05:11:39;;;;;;;;;;;;;;;5.30;100.00;99441.06;5114032;28;19911;-36
2023/01/09 05:14:04;;;;;;;;;;;;;;;5.31;100.00;99440.03;5114318;28;20359;-36
2023/01/09 05:16:30;;;;;;;;;;;;;;;5.34;100.00;99436.88;5114019;28;20382;-36
2023/01/09 05:18:56;;;;;;;;;;;;;;;5.38;100.00;99437.25;5114542;28;19919;-37
2023/01/09 05:21:22;;;;;;;;;;;;;;;5.40;100.00;99443.19;5114141;28;19912;-37
2023/01/09 05:23:47;;;;;;;;;;;;;;;5.43;100.00;99445.41;5114250;28;20271;-37
2023/01/09 05:26:12;;;;;;;;;;;;;;;5.43;100.00;99440.06;5114232;28;19911;-37
2023/01/09 05:28:38;;;;;;;;;;;;;;;5.45;100.00;99437.13;5115089;28;19954;-36
2023/01/09 05:31:03;;;;;;;;;;;;;;;5.49;100.00;99438.31;5114034;28;19962;-37
2023/01/09 05:33:28;;;;;;;;;;;;;;;5.50;100.00;99434.56;5115232;28;19962;-37
2023/01/09 05:35:53;;;;;;;;;;;;;;;5.53;100.00;99436.78;5114438;28;19956;-37
2023/01/09 05:38:19;;;;;;;;;;;;;;;5.56;100.00;99439.00;5113640;28;19911;-37
2023/01/09 05:40:44;;;;;;;;;;;;;;;5.57;100.00;99436.09;5115002;28;19911;-37
2023/01/09 05:43:09;;;;;;;;;;;;;;;5.59;100.00;99436.69;5118937;28;19912;-37
2023/01/09 05:45:34;;;;;;;;;;;;;;;5.61;100.00;99437.28;5117734;28;20291;-37
2023/01/09 05:47:59;;;;;;;;;;;;;;;5.63;100.00;99435.16;5118287;28;20359;-37
2023/01/09 05:50:25;;;;;;;;;;;;;;;5.64;100.00;99442.16;5117946;28;19961;-37
2023/01/09 05:52:50;;;;;;;;;;;;;;;5.67;100.00;99435.53;5118664;28;19958;-37
2023/01/09 05:55:16;;;;;;;;;;;;;;;5.69;100.00;99439.59;5118138;28;20341;-37
2023/01/09 05:57:41;;;;;;;;;;;;;;;5.71;100.00;99430.50;5118427;28;20371;-37
2023/01/09 06:00:07;;;;;;;;;;;;;;;5.73;100.00;99431.91;5117793;28;19966;-37
2023/01/09 06:02:32;;;;;;;;;;;;;;;5.75;100.00;99427.09;5117314;28;19912;-37
2023/01/09 06:04:57;;;;;;;;;;;;;;;5.77;100.00;99419.66;5117671;28;19919;-37
2023/01/09 06:07:22;;;;;;;;;;;;;;;5.76;100.00;99423.41;5117810;28;19912;-36
2023/01/09 06:09:48;;;;;;;;;;;;;;;5.77;100.00;99425.03;5117914;28;19912;-37
2023/01/09 06:12:13;;;;;;;;;;;;;;;5.78;100.00;99421.28;5117869;28;19918;-37
2023/01/09 06:14:38;;;;;;;;;;;;;;;5.79;100.00;99417.53;5117074;28;19964;-37
2023/01/09 06:17:03;;;;;;;;;;;;;;;5.80;100.00;99419.16;5118015;28;20006;-37
2023/01/09 06:19:28;;;;;;;;;;;;;;;5.79;100.00;99420.22;5117366;28;19915;-37
2023/01/09 06:21:54;;;;;;;;;;;;;;;5.81;100.00;99420.03;5117780;28;19911;-36
2023/01/09 06:24:19;;;;;;;;;;;;;;;5.82;100.00;99410.91;5117525;28;19911;-37
2023/01/09 06:26:44;;;;;;;;;;;;;;;5.82;100.00;99413.59;5116932;28;19918;-37
2023/01/09 06:29:09;;;;;;;;;;;;;;;5.83;100.00;99417.91;5116960;28;20317;-37
2023/01/09 06:31:35;;;;;;;;;;;;;;;5.84;100.00;99406.94;5117146;28;20296;-37
2023/01/09 06:34:00;;;;;;;;;;;;;;;5.87;100.00;99406.47;5117810;28;19911;-37
2023/01/09 06:36:25;;;;;;;;;;;;;;;5.89;100.00;99412.41;5116714;28;19912;-37
2023/01/09 06:38:50;;;;;;;;;;;;;;;5.92;100.00;99422.72;5117433;28;19916;-37
2023/01/09 06:41:16;;;;;;;;;;;;;;;5.94;100.00;99425.16;5116947;28;19919;-37
2023/01/09 06:43:41;;;;;;;;;;;;;;;5.97;100.00;99418.50;5117140;28;19934;-37
2023/01/09 06:46:06;;;;;;;;;;;;;;;5.97;100.00;99421.19;5116826;28;20375;-37
2023/01/09 06:48:32;;;;;;;;;;;;;;;6.01;100.00;99411.63;5117115;28;19911;-37
2023/01/09 06:50:57;;;;;;;;;;;;;;;6.04;100.00;99411.13;5117052;28;19962;-37
2023/01/09 06:53:22;;;;;;;;;;;;;;;6.05;100.00;99413.59;5115429;28;19912;-37
2023/01/09 06:55:48;;;;;;;;;;;;;;;6.07;100.00;99419.53;5116316;28;20002;-37
2023/01/09 06:58:13;;;;;;;;;;;;;;;6.10;100.00;99429.81;5116718;28;20019;-36
2023/01/09 07:00:38;;;;;;;;;;;;;;;6.11;100.00;99426.06;5116252;28;20276;-37
2023/01/09 07:03:04;;;;;;;;;;;;;;;6.13;100.00;99431.19;5116598;28;19912;-37
2023/01/09 07:05:30;;;;;;;;;;;;;;;6.15;100.00;99431.78;5098204;28;19912;-37
2023/01/09 07:07:55;;;;;;;;;;;;;;;6.15;100.00;99439.84;5116473;28;19965;-37
2023/01/09 07:10:21;;;;;;;;;;;;;;;6.13;100.00;99432.00;5116414;28;19938;-37
2023/01/09 07:12:46;;;;;;;;;;;;;;;6.13;100.00;99441.94;5116904;28;19911;-37
2023/01/09 07:15:11;;;;;;;;;;;;;;;6.12;100.00;99433.06;5116053;28;20350;-37
2023/01/09 07:17:36;;;;;;;;;;;;;;;6.10;100.00;99437.03;5115975;28;19919;-37
2023/01/09 07:20:02;;;;;;;;;;;;;;;6.10;100.00;99440.53;5116945;28;19912;-37
2023/01/09 07:22:27;;;;;;;;;;;;;;;6.08;100.00;99441.81;5116989;28;20355;-37
2023/01/09 07:24:53;;;;;;;;;;;;;;;6.07;100.00;99450.94;5116715;28;19918;-37
2023/01/09 07:27:18;;;;;;;;;;;;;;;6.08;100.00;99452.56;5116619;28;20360;-37
2023/01/09 07:29:43;;;;;;;;;;;;;;;6.08;100.00;99461.41;5116875;28;20412;-37
2023/01/09 07:32:09;;;;;;;;;;;;;;;6.08;100.00;99453.38;5116870;28;19911;-38
2023/01/09 07:34:34;;;;;;;;;;;;;;;6.10;100.00;99464.69;5116210;28;19911;-37
2023/01/09 07:36:59;;;;;;;;;;;;;;;6.08;100.00;99474.84;5115882;28;19911;-38
2023/01/09 07:39:24;;;;;;;;;;;;;;;6.09;100.00;99479.16;5116148;28;19915;-37
2023/01/09 07:41:49;;;;;;;;;;;;;;;6.08;100.00;99476.72;5115769;28;19911;-37
2023/01/09 07:44:15;;;;;;;;;;;;;;;6.08;100.00;99480.22;5118499;27;20356;-37
2023/01/09 07:46:40;;;;;;;;;;;;;;;6.06;100.00;99489.56;5136044;27;20333;-37
2023/01/09 07:49:05;;;;;;;;;;;;;;;6.01;100.00;99486.75;5136734;27;19915;-38
2023/01/09 07:51:30;;;;;;;;;;;;;;;6.01;100.00;99489.44;5136523;27;19911;-37
2023/01/09 07:53:56;;;;;;;;;;;;;;;6.00;100.00;99488.59;5136294;27;19963;-36
2023/01/09 07:56:21;;;;;;;;;;;;;;;6.01;100.00;99500.19;5136337;27;20356;-37
2023/01/09 07:58:46;;;;;;;;;;;;;;;5.99;100.00;99497.72;5136092;27;19911;-37
2023/01/09 08:01:11;;;;;;;;;;;;;;;6.00;100.00;99509.25;5136815;27;19911;-37
2023/01/09 08:03:37;;;;;;;;;;;;;;;5.99;100.00;99513.00;5136260;27;19915;-37
2023/01/09 08:06:02;;;;;;;;;;;;;;;6.00;100.00;99506.56;5135849;27;19918;-37
2023/01/09 08:08:28;;;;;;;;;;;;;;;6.00;100.00;99515.44;5136429;27;20006;-37
2023/01/09 08:10:53;;;;;;;;;;;;;;;6.01;100.00;99517.09;5135719;27;20256;-37
2023/01/09 08:13:18;;;;;;;;;;;;;;;6.01;100.00;99527.00;5136016;27;19998;-37
2023/01/09 08:15:43;;;;;;;;;;;;;;;6.02;100.00;99526.78;5135664;27;20428;-37
2023/01/09 08:18:09;;;;;;;;;;;;;;;6.05;100.00;99533.53;5135572;27;19973;-37
2023/01/09 08:20:34;;;;;;;;;;;;;;;6.03;100.00;99532.94;5135598;27;19918;-37
2023/01/09 08:22:59;;;;;;;;;;;;;;;6.04;100.00;99546.13;5135638;27;20404;-38
2023/01/09 08:25:24;;;;;;;;;;;;;;;6.04;100.00;99548.00;5135467;27;19915;-37
2023/01/09 08:27:50;;;;;;;;;;;;;;;6.06;100.00;99556.66;5136337;27;19911;-37
2023/01/09 08:30:16;;;;;;;;;;;;;;;6.05;100.00;99561.19;5135545;27;19912;-37
2023/01/09 08:32:41;;;;;;;;;;;;;;;6.07;100.00;99564.47;5135344;27;20385;-37
2023/01/09 08:35:07;;;;;;;;;;;;;;;6.10;100.00;99573.91;5134980;27;19951;-37
2023/01/09 08:37:32;;;;;;;;;;;;;;;6.11;100.00;99570.19;5135308;27;19918;-37
2023/01/09 08:39:58;;;;;;;;;;;;;;;6.16;100.00;99578.34;5135899;27;19946;-37
2023/01/09 08:48:09;;;;;;;;;;;;;;;6.26;100.00;99586.66;5135600;27;19918;-37
2023/01/09 08:50:34;;;;;;;;;;;;;;;6.28;100.00;99597.97;5135542;27;19915;-37
2023/01/09 08:53:00;;;;;;;;;;;;;;;6.29;100.00;99604.94;5134768;27;20019;-37
2023/01/09 08:55:25;;;;;;;;;;;;;;;6.32;100.00;99604.50;5135477;27;20309;-37
2023/01/09 08:57:51;;;;;;;;;;;;;;;6.33;100.00;99624.91;5135033;27;19918;-37
2023/01/09 09:00:17;;;;;;;;;;;;;;;6.33;100.00;99622.22;5135111;27;20418;-38
2023/01/09 09:02:42;;;;;;;;;;;;;;;6.35;100.00;99624.72;5134705;28;20064;-37
2023/01/09 09:05:07;;;;;;;;;;;;;;;6.34;100.00;99621.19;5135102;28;20059;-37
2023/01/09 09:07:33;;;;;;;;;;;;;;;6.35;100.00;99630.06;5134935;28;19923;-37
2023/01/09 09:09:58;;;;;;;;;;;;;;;6.35;100.00;99633.56;5134727;28;19912;-37
2023/01/09 09:12:23;;;;;;;;;;;;;;;6.35;100.00;99636.25;5117341;28;19918;-37
2023/01/09 09:17:32;;;;;;;;;;;;;;;6.33;100.00;99648.28;5139145;27;20286;-37
2023/01/09 09:19:58;;;;;;;;;;;;;;;6.32;100.00;99660.88;5139485;27;19915;-37
2023/01/09 09:22:23;;;;;;;;;;;;;;;6.35;100.00;99654.25;5138749;27;19911;-37
2023/01/09 09:24:48;;;;;;;;;;;;;;;6.35;100.00;99665.81;5138789;27;19917;-37
2023/01/09 09:27:13;;;;;;;;;;;;;;;6.38;100.00;99659.94;5139494;27;19925;-37
2023/01/09 09:29:38;;;;;;;;;;;;;;;6.40;100.00;99665.91;5139539;27;19918;-37
2023/01/09 09:32:04;;;;;;;;;;;;;;;6.40;100.00;99676.66;5138923;27;19950;-37
2023/01/09 09:34:29;;;;;;;;;;;;;;;6.39;100.00;99683.09;5138802;27;20018;-37
2023/01/09 09:36:54;;;;;;;;;;;;;;;6.43;100.00;99694.16;5138818;27;19923;-37
2023/01/09 09:39:19;;;;;;;;;;;;;;;6.45;100.00;99690.22;5139167;27;19915;-37
2023/01/09 09:44:53;;;;;;;;;;;;;;;6.47;100.00;99702.56;5138456;27;19933;-37
2023/01/09 09:47:28;;;;;;;;;;;;;;;6.41;100.00;99707.81;5138880;27;19950;-37
2023/01/09 09:50:04;;;;;;;;;;;;;;;6.38;100.00;99710.16;5138899;27;19911;-37
2023/01/09 09:52:45;;;;;;;;;;;;;;;6.37;100.00;99714.72;5138536;27;20005;-37
2023/01/09 09:55:31;;;;;;;;;;;;;;;6.40;100.00;99714.25;5138429;27;20346;-37
2023/01/09 09:57:59;;;;;;;;;;;;;;;6.48;100.00;99729.19;5138170;27;19912;-37
2023/01/09 10:00:24;;;;;;;;;;;;;;;6.54;100.00;99730.13;5138083;27;20359;-37
2023/01/09 10:03:00;;;;;;;;;;;;;;;6.56;100.00;99738.78;5138577;27;19911;-37
2023/01/09 10:05:29;;;;;;;;;;;;;;;6.64;100.00;99746.53;5138315;27;19965;-37
2023/01/09 10:07:58;;;;;;;;;;;;;;;6.70;100.00;99759.84;5138213;27;19911;-37
2023/01/09 10:10:26;;;;;;;;;;;;;;;6.77;100.00;99766.97;5138504;27;19956;-37
2023/01/09 10:12:56;;;;;;;;;;;;;;;6.80;100.00;99761.94;5138362;27;19918;-37
2023/01/09 10:15:35;;;;;;;;;;;;;;;6.87;100.00;99770.69;5138654;27;19911;-37
2023/01/09 10:18:09;;;;;;;;;;;;;;;6.98;100.00;99774.47;5137791;27;19917;-37
2023/01/09 10:21:01;;;;;;;;;;;;;;;7.04;100.00;99772.72;5138584;27;20408;-37
2023/01/09 10:23:33;;;;;;;;;;;;;;;7.11;100.00;99782.28;5054837;28;19912;-37
2023/01/09 10:26:10;;;;;;;;;;;;;;;7.18;100.00;99774.13;5054902;28;19920;-37
2023/01/09 10:28:41;;;;;;;;;;;;;;;7.25;100.00;99780.19;5053419;28;19913;-37
2023/01/09 10:31:21;;;;;;;;;;;;;;;7.31;100.00;99779.22;5054257;28;20023;-37
2023/01/09 10:33:46;;;;;;;;;;;;;;;7.32;100.00;99786.28;5054379;28;20396;-37
2023/01/09 10:36:30;;;;;;;;;;;;;;;7.26;100.00;99795.25;5054161;28;19996;-37
2023/01/09 10:39:00;;;;;;;;;;;;;;;7.17;100.00;99796.66;5058641;28;19999;-37
2023/01/09 10:41:33;;;;;;;;;;;;;;;7.15;100.00;99796.09;5074300;28;20372;-37
2023/01/09 10:44:03;;;;;;;;;;;;;;;7.18;100.00;99796.44;5074644;28;19912;-37
2023/01/09 10:46:33;;;;;;;;;;;;;;;7.18;100.00;99801.81;5073969;28;20384;-37
2023/01/09 10:49:00;;;;;;;;;;;;;;;7.20;100.00;99801.56;5074021;28;19919;-37
2023/01/09 10:51:38;;;;;;;;;;;;;;;7.24;100.00;99810.81;5073842;28;20408;-37
2023/01/09 10:54:09;;;;;;;;;;;;;;;7.22;100.00;99810.22;5073978;28;19912;-37
2023/01/09 10:56:38;;;;;;;;;;;;;;;7.26;100.00;99814.09;5074438;28;19923;-37
2023/01/09 10:59:03;;;;;;;;;;;;;;;7.22;100.00;99813.75;5075471;28;20381;-37
2023/01/09 11:01:33;;;;;;;;;;;;;;;7.21;100.00;99811.28;5117216;28;19916;-37
2023/01/09 11:04:00;;;;;;;;;;;;;;;7.18;100.00;99817.94;5116613;28;20398;-37
2023/01/09 11:06:33;;;;;;;;;;;;;;;7.16;100.00;99824.59;5116792;28;19911;-38
2023/01/09 11:08:59;;;;;;;;;;;;;;;7.14;100.00;99832.91;5116584;28;19919;-38
2023/01/09 11:11:32;;;;;;;;;;;;;;;7.09;100.00;99824.72;5117020;28;19912;-37
2023/01/09 11:14:26;;;;;;;;;;;;;;;7.11;100.00;99819.09;5116910;28;19915;-37
2023/01/09 11:16:55;;;;;;;;;;;;;;;7.15;100.00;99822.97;5115695;28;20344;-37
2023/01/09 11:19:21;;;;;;;;;;;;;;;7.17;100.00;99832.47;5116346;28;19919;-37
2023/01/09 11:21:46;;;;;;;;;;;;;;;7.18;100.00;99841.34;5116532;28;19911;-37
2023/01/09 11:24:15;;;;;;;;;;;;;;;7.17;100.00;99847.75;5116219;28;19958;-37
2023/01/09 11:26:40;;;;;;;;;;;;;;;7.15;100.00;99855.22;5116441;28;19912;-38
2023/01/09 11:29:08;;;;;;;;;;;;;;;7.16;100.00;99840.72;5116479;28;19911;-37
2023/01/09 11:31:34;;;;;;;;;;;;;;;7.15;100.00;99847.97;5116026;28;19912;-37
2023/01/09 11:33:59;;;;;;;;;;;;;;;7.17;100.00;99858.50;5116752;28;19911;-37
2023/01/09 11:36:24;;;;;;;;;;;;;;;7.20;100.00;99858.03;5116003;28;20307;-37
2023/01/09 11:38:52;;;;;;;;;;;;;;;7.28;100.00;99849.63;5101389;27;19923;-37
2023/01/09 11:41:19;;;;;;;;;;;;;;;7.35;100.00;99852.19;5137205;27;20354;-37
2023/01/09 11:43:47;;;;;;;;;;;;;;;7.39;100.00;99854.19;5136063;27;20378;-37
2023/01/09 11:46:29;;;;;;;;;;;;;;;7.40;100.00;99858.50;5136253;27;20324;-37
2023/01/09 11:48:55;;;;;;;;;;;;;;;7.42;100.00;99864.50;5137138;27;20277;-37
2023/01/09 11:51:22;;;;;;;;;;;;;;;7.41;100.00;99870.09;5136143;27;19965;-37
2023/01/09 11:53:52;;;;;;;;;;;;;;;7.44;100.00;99870.44;5136033;27;19922;-37
2023/01/09 11:56:17;;;;;;;;;;;;;;;7.48;100.00;99871.63;5136005;27;19916;-37
2023/01/09 11:58:43;;;;;;;;;;;;;;;7.51;100.00;99869.50;5136041;27;19917;-37
2023/01/09 12:01:18;;;;;;;;;;;;;;;7.56;100.00;99878.50;5136002;27;20002;-37
2023/01/09 12:04:02;;;;;;;;;;;;;;;7.63;100.00;99873.03;5136309;27;19911;-37
2023/01/09 12:06:51;;;;;;;;;;;;;;;7.66;100.00;99872.53;5135901;27;19915;-37
2023/01/09 12:09:25;;;;;;;;;;;;;;;7.66;100.00;99873.38;5136468;27;19911;-37
2023/01/09 12:12:19;;;;;;;;;;;;;;;7.65;100.00;99870.91;5135834;27;19998;-37
2023/01/09 12:14:55;;;;;;;;;;;;;;;7.62;100.00;99877.59;5052285;28;20509;-37
2023/01/09 12:17:37;;;;;;;;;;;;;;;7.63;100.00;99873.84;5053156;28;20320;-37
2023/01/09 12:20:20;;;;;;;;;;;;;;;7.63;100.00;99879.22;5052784;28;19908;-37
2023/01/09 12:22:51;;;;;;;;;;;;;;;7.64;100.00;99888.09;5052435;28;19948;-37
2023/01/09 12:25:16;;;;;;;;;;;;;;;7.60;100.00;99879.69;5052187;28;20380;-37
2023/01/09 12:27:59;;;;;;;;;;;;;;;7.59;100.00;99880.72;5052876;28;19928;-37
2023/01/09 12:30:39;;;;;;;;;;;;;;;7.61;100.00;99878.66;5052373;28;19909;-37
2023/01/09 12:33:24;;;;;;;;;;;;;;;7.68;100.00;99886.59;5052293;28;19919;-37
2023/01/09 12:36:07;;;;;;;;;;;;;;;7.72;100.00;99888.56;5052240;28;19913;-38
2023/01/09 12:38:40;;;;;;;;;;;;;;;7.79;100.00;99874.97;5052497;28;19916;-38
2023/01/09 12:41:23;;;;;;;;;;;;;;;7.89;100.00;99880.59;5052546;28;19917;-38
2023/01/09 12:43:48;;;;;;;;;;;;;;;8.05;100.00;99883.59;5052309;28;19916;-37
2023/01/09 12:46:15;;;;;;;;;;;;;;;8.18;100.00;99896.81;5052129;28;20335;-38
2023/01/09 12:48:47;;;;;;;;;;;;;;;8.24;100.00;99888.56;5051809;28;19913;-38
2023/01/09 12:51:48;;;;;;;;;;;;;;;8.27;100.00;99898.06;5095642;27;19911;-38